createdAt,value
2022-11-21T00:01:18.322Z,98194.09
2022-11-21T00:03:46.526Z,98200.41
2022-11-21T00:06:14.966Z,98201.16
2022-11-21T00:08:44.438Z,98187.28
2022-11-21T00:11:13.035Z,98186.56
2022-11-21T00:13:41.338Z,98209.13
2022-11-21T00:16:11.603Z,98213.50
2022-11-21T00:18:40.308Z,98218.50
2022-11-21T00:21:09.816Z,98226.59
2022-11-21T00:23:37.761Z,98230.69
2022-11-21T00:26:08.352Z,98233.25
2022-11-21T00:28:36.639Z,98240.88
2022-11-21T00:31:05.389Z,98245.84
2022-11-21T00:33:33.609Z,98266.97
2022-11-21T00:36:07.343Z,98254.50
2022-11-21T00:38:35.301Z,98264.53
2022-11-21T00:41:03.187Z,98261.53
2022-11-21T00:43:32.512Z,98269.78
2022-11-21T00:46:02.482Z,98265.19
2022-11-21T00:48:30.790Z,98274.53
2022-11-21T00:51:00.354Z,98290.44
2022-11-21T00:53:28.265Z,98283.66
2022-11-21T00:55:56.212Z,98283.38
2022-11-21T00:58:24.121Z,98290.47
2022-11-21T01:00:53.773Z,98292.88
2022-11-21T01:03:22.054Z,98294.97
2022-11-21T01:05:49.914Z,98290.22
2022-11-21T01:08:17.788Z,98299.91
2022-11-21T01:10:45.656Z,98298.66
2022-11-21T01:13:13.616Z,98302.47
2022-11-21T01:15:41.511Z,98301.38
2022-11-21T01:18:10.969Z,98301.25
2022-11-21T01:20:40.532Z,98303.84
2022-11-21T01:23:08.343Z,98306.50
2022-11-21T01:25:39.161Z,98323.44
2022-11-21T01:28:07.033Z,98318.72
2022-11-21T01:30:34.917Z,98333.28
2022-11-21T01:33:02.815Z,98330.88
2022-11-21T01:35:32.414Z,98334.41
2022-11-21T01:38:00.575Z,98336.72
2022-11-21T01:40:28.496Z,98341.09
2022-11-21T01:43:01.259Z,98338.78
2022-11-21T01:45:53.542Z,98335.63
2022-11-21T01:48:24.424Z,98337.09
2022-11-21T01:50:55.036Z,98344.38
2022-11-21T01:53:23.223Z,98344.56
2022-11-21T01:55:51.452Z,98342.13
2022-11-21T01:58:19.776Z,98338.38
2022-11-21T02:00:49.000Z,98351.47
2022-11-21T02:03:22.414Z,98349.31
2022-11-21T02:05:50.443Z,98356.28
2022-11-21T02:08:22.275Z,98353.44
2022-11-21T02:10:57.937Z,98363.78
2022-11-21T02:13:26.432Z,98347.03
2022-11-21T02:15:55.343Z,98347.97
2022-11-21T02:18:23.278Z,98375.38
2022-11-21T02:21:01.380Z,98366.81
2022-11-21T02:23:36.454Z,98354.66
2022-11-21T02:26:06.097Z,98361.84
2022-11-21T02:28:34.059Z,98371.75
2022-11-21T02:31:01.999Z,98364.69
2022-11-21T02:33:29.975Z,98370.13
2022-11-21T02:35:59.491Z,98375.72
2022-11-21T02:38:31.911Z,98369.91
2022-11-21T02:41:14.738Z,98383.13
2022-11-21T02:43:47.623Z,98373.28
2022-11-21T02:46:15.521Z,98377.69
2022-11-21T02:48:43.725Z,98372.66
2022-11-21T02:51:11.672Z,98387.94
2022-11-21T02:53:39.565Z,98388.75
2022-11-21T02:56:08.976Z,98387.47
2022-11-21T02:58:37.118Z,98389.81
2022-11-21T03:01:05.232Z,98396.63
2022-11-21T03:03:33.147Z,98401.78
2022-11-21T03:06:01.145Z,98393.31
2022-11-21T03:08:29.003Z,98401.25
2022-11-21T03:10:56.838Z,98388.31
2022-11-21T03:13:26.145Z,98383.91
2022-11-21T03:15:55.385Z,98366.13
2022-11-21T03:18:25.199Z,98368.59
2022-11-21T03:20:53.086Z,98367.75
2022-11-21T03:23:21.466Z,98367.34
2022-11-21T03:25:49.356Z,98369.91
2022-11-21T03:28:17.360Z,98382.97
2022-11-21T03:30:46.611Z,98369.50
2022-11-21T03:33:14.503Z,98374.09
2022-11-21T03:35:42.364Z,98377.84
2022-11-21T03:38:10.312Z,98372.78
2022-11-21T03:40:38.172Z,98376.34
2022-11-21T03:43:06.636Z,98384.03
2022-11-21T03:45:34.789Z,98385.53
2022-11-21T03:48:04.154Z,98384.22
2022-11-21T03:50:32.218Z,98384.50
2022-11-21T03:53:00.086Z,98390.97
2022-11-21T03:55:27.935Z,98387.41
2022-11-21T03:57:55.849Z,98393.19
2022-11-21T04:00:24.266Z,98395.75
2022-11-21T04:02:52.303Z,98395.34
2022-11-21T04:05:21.668Z,98400.66
2022-11-21T04:07:49.736Z,98393.84
2022-11-21T04:10:18.001Z,98397.28
2022-11-21T04:12:46.187Z,98393.28
2022-11-21T04:15:14.271Z,98395.94
2022-11-21T04:17:42.630Z,98399.63
2022-11-21T04:20:11.880Z,98402.81
2022-11-21T04:22:41.102Z,98413.69
2022-11-21T04:25:09.537Z,98396.47
2022-11-21T04:27:37.464Z,98390.41
2022-11-21T04:30:06.466Z,98396.81
2022-11-21T04:32:34.489Z,98391.56
2022-11-21T04:35:02.386Z,98400.09
2022-11-21T04:37:30.343Z,98407.56
2022-11-21T04:39:59.868Z,98406.31
2022-11-21T04:42:27.812Z,98407.91
2022-11-21T04:44:55.622Z,98407.28
2022-11-21T04:47:23.598Z,98403.53
2022-11-21T04:49:51.594Z,98404.78
2022-11-21T04:52:19.582Z,98406.63
2022-11-21T04:54:48.112Z,98404.72
2022-11-21T04:57:17.448Z,98396.81
2022-11-21T04:59:45.307Z,98383.75
2022-11-21T05:02:13.174Z,98391.25
2022-11-21T05:04:41.196Z,98402.91
2022-11-21T05:07:09.103Z,98409.63
2022-11-21T05:09:37.058Z,98401.19
2022-11-21T05:12:22.609Z,98413.81
2022-11-21T05:14:51.853Z,98413.06
2022-11-21T05:17:19.772Z,98427.44
2022-11-21T05:19:47.676Z,98429.09
2022-11-21T05:22:15.569Z,98425.72
2022-11-21T05:24:43.464Z,98422.84
2022-11-21T05:27:11.644Z,98413.78
2022-11-21T05:29:39.603Z,98409.94
2022-11-21T05:32:08.943Z,98410.56
2022-11-21T05:34:36.820Z,98411.75
2022-11-21T05:37:05.446Z,98405.66
2022-11-21T05:39:33.461Z,98412.19
2022-11-21T05:42:03.225Z,98411.72
2022-11-21T05:44:30.851Z,98410.03
2022-11-21T05:46:59.115Z,98410.66
2022-11-21T05:49:28.441Z,98417.81
2022-11-21T05:51:56.440Z,98419.00
2022-11-21T05:54:24.628Z,98419.63
2022-11-21T05:56:52.666Z,98405.19
2022-11-21T05:59:20.695Z,98404.44
2022-11-21T06:02:06.041Z,98407.88
2022-11-21T06:04:36.006Z,98400.09
2022-11-21T06:07:05.917Z,98392.09
2022-11-21T06:09:34.115Z,98389.09
2022-11-21T06:12:02.182Z,98388.56
2022-11-21T06:14:30.346Z,98391.72
2022-11-21T06:16:58.649Z,98382.97
2022-11-21T06:19:26.807Z,98380.13
2022-11-21T06:21:56.270Z,98372.41
2022-11-21T06:24:24.349Z,98363.44
2022-11-21T06:26:52.375Z,98370.28
2022-11-21T06:29:22.287Z,98361.53
2022-11-21T06:31:50.943Z,98351.56
2022-11-21T06:34:19.162Z,98361.00
2022-11-21T06:36:47.284Z,98355.72
2022-11-21T06:39:16.784Z,98366.13
2022-11-21T06:41:51.266Z,98368.06
2022-11-21T06:44:19.469Z,98362.94
2022-11-21T06:46:51.218Z,98366.34
2022-11-21T06:49:19.682Z,98375.47
2022-11-21T06:51:47.692Z,98374.78
2022-11-21T06:54:17.404Z,98368.06
2022-11-21T06:56:45.480Z,98373.31
2022-11-21T06:59:18.967Z,98364.66
2022-11-21T07:01:47.226Z,98368.34
2022-11-21T07:04:15.431Z,98374.63
2022-11-21T07:06:43.494Z,98378.81
2022-11-21T07:09:32.166Z,98376.63
2022-11-21T07:12:21.756Z,98384.50
2022-11-21T07:14:50.460Z,98396.56
2022-11-21T07:17:19.415Z,98398.66
2022-11-21T07:19:50.321Z,98412.75
2022-11-21T07:22:18.554Z,98415.09
2022-11-21T07:24:47.042Z,98425.81
2022-11-21T07:27:21.033Z,98429.31
2022-11-21T07:29:50.013Z,98447.59
2022-11-21T07:32:19.998Z,98479.19
2022-11-21T07:35:03.416Z,98504.84
2022-11-21T07:37:32.429Z,98525.13
2022-11-21T07:40:01.097Z,98541.59
2022-11-21T07:42:36.537Z,98570.09
2022-11-21T07:45:05.534Z,98589.66
2022-11-21T07:47:33.698Z,98591.03
2022-11-21T07:50:01.868Z,98593.59
2022-11-21T07:52:30.650Z,98599.16
2022-11-21T07:54:59.195Z,98616.25
2022-11-21T07:57:27.494Z,98632.38
2022-11-21T07:59:57.237Z,98648.16
2022-11-21T08:02:27.220Z,98659.00
2022-11-21T08:04:55.515Z,98635.47
2022-11-21T08:07:24.953Z,98654.63
2022-11-21T08:09:53.260Z,98676.19
2022-11-21T08:12:21.467Z,98692.09
2022-11-21T08:14:49.604Z,98700.97
2022-11-21T08:17:19.231Z,98710.81
2022-11-21T08:19:47.211Z,98716.81
2022-11-21T08:22:15.182Z,98718.28
2022-11-21T08:24:43.281Z,98732.84
2022-11-21T08:27:11.567Z,98752.63
2022-11-21T08:29:40.046Z,98778.72
2022-11-21T08:32:08.172Z,98806.41
2022-11-21T08:34:37.645Z,98842.34
2022-11-21T08:37:05.825Z,98859.03
2022-11-21T08:39:34.149Z,98902.25
2022-11-21T08:42:05.468Z,98925.59
2022-11-21T08:44:34.895Z,98949.16
2022-11-21T08:47:03.441Z,98965.38
2022-11-21T08:49:31.645Z,98990.84
2022-11-21T08:52:01.296Z,98993.63
2022-11-21T08:54:29.718Z,99004.34
2022-11-21T08:56:57.996Z,99027.91
2022-11-21T08:59:26.128Z,99050.91
2022-11-21T09:01:54.333Z,99072.34
2022-11-21T09:04:22.545Z,99087.94
2022-11-21T09:06:50.705Z,99107.75
2022-11-21T09:09:25.092Z,99131.44
2022-11-21T09:11:53.892Z,99151.69
2022-11-21T09:14:47.975Z,99181.00
2022-11-21T09:17:33.576Z,99200.94
2022-11-21T09:20:01.599Z,99214.50
2022-11-21T09:22:29.674Z,99229.03
2022-11-21T09:24:59.284Z,99243.84
2022-11-21T09:27:27.520Z,99254.44
2022-11-21T09:29:55.588Z,99250.25
2022-11-21T09:32:23.693Z,99258.50
2022-11-21T09:34:51.822Z,99269.94
2022-11-21T09:37:20.011Z,99274.25
2022-11-21T09:39:49.019Z,99287.06
2022-11-21T09:42:33.423Z,99300.25
2022-11-21T09:45:14.900Z,99343.16
2022-11-21T09:47:44.703Z,99343.75
2022-11-21T09:50:27.159Z,99336.81
2022-11-21T09:53:00.010Z,99344.03
2022-11-21T09:55:33.888Z,99345.81
2022-11-21T09:58:07.624Z,99337.16
2022-11-21T10:00:35.783Z,99330.97
2022-11-21T10:03:03.763Z,99290.44
2022-11-21T10:05:39.195Z,99237.88
2022-11-21T10:08:17.673Z,99192.41
2022-11-21T10:10:55.304Z,99179.97
2022-11-21T10:13:39.555Z,99153.16
2022-11-21T10:16:14.562Z,99162.81
2022-11-21T10:19:15.766Z,99164.81
2022-11-21T10:21:59.253Z,99132.00
2022-11-21T10:24:45.111Z,99072.53
2022-11-21T10:27:17.116Z,99006.66
2022-11-21T10:29:53.208Z,98942.94
2022-11-21T10:32:25.631Z,98848.81
2022-11-21T10:34:59.243Z,98792.25
2022-11-21T10:37:38.968Z,98746.38
2022-11-21T10:40:21.793Z,98709.44
2022-11-21T10:42:56.873Z,98683.97
2022-11-21T10:45:32.810Z,98658.72
2022-11-21T10:48:06.774Z,98649.00
2022-11-21T10:50:46.487Z,98639.81
2022-11-21T10:53:36.159Z,98600.78
2022-11-21T10:56:07.767Z,98552.44
2022-11-21T10:58:41.323Z,98530.97
2022-11-21T11:01:22.428Z,98507.22
2022-11-21T11:04:26.778Z,98458.53
2022-11-21T11:06:55.136Z,98420.13
2022-11-21T11:09:33.412Z,98390.47
2022-11-21T11:12:56.612Z,98329.88
2022-11-21T11:15:30.802Z,98233.44
2022-11-21T11:21:18.476Z,98097.22
2022-11-21T11:23:47.143Z,98082.22
2022-11-21T11:26:33.631Z,98102.84
2022-11-21T11:29:11.620Z,98077.59
2022-11-21T11:32:03.949Z,98058.91
2022-11-21T11:35:18.228Z,98038.59
2022-11-21T11:38:20.795Z,98011.50
2022-11-21T11:40:48.919Z,98110.63
2022-11-21T11:43:48.276Z,98106.13
2022-11-21T11:46:48.065Z,98078.72
2022-11-21T11:49:22.840Z,98071.38
2022-11-21T11:51:56.512Z,98065.28
2022-11-21T11:54:29.352Z,98042.69
2022-11-21T11:56:58.715Z,98011.31
2022-11-21T11:59:32.762Z,97993.22
2022-11-21T12:02:08.896Z,97984.41
2022-11-21T12:04:47.275Z,97980.22
2022-11-21T12:10:18.594Z,97966.09
2022-11-21T12:12:51.138Z,97948.72
2022-11-21T12:15:41.862Z,97922.06
2022-11-21T12:18:17.754Z,97904.19
2022-11-21T12:20:55.448Z,97900.66
2022-11-21T12:23:27.752Z,97893.03
2022-11-21T12:26:08.009Z,97906.53
2022-11-21T12:28:47.122Z,97877.53
2022-11-21T12:31:22.636Z,97863.97
2022-11-21T12:33:59.674Z,97832.59
2022-11-21T12:36:38.848Z,97796.84
2022-11-21T12:39:42.094Z,97761.13
2022-11-21T12:42:35.774Z,97729.72
2022-11-21T12:45:21.096Z,97709.53
2022-11-21T12:48:29.175Z,97709.22
2022-11-21T12:51:27.163Z,97682.81
2022-11-21T12:54:19.465Z,97679.69
2022-11-21T12:56:52.912Z,97675.94
2022-11-21T12:59:24.626Z,97669.03
2022-11-21T13:02:02.952Z,97654.28
2022-11-21T13:04:35.747Z,97641.53
2022-11-21T13:07:04.969Z,97648.84
2022-11-21T13:09:39.208Z,97644.94
2022-11-21T13:12:11.088Z,97645.63
2022-11-21T13:14:48.405Z,97635.50
2022-11-21T13:17:29.297Z,97641.50
2022-11-21T13:20:01.659Z,97641.19
2022-11-21T13:23:07.808Z,97641.56
2022-11-21T13:25:47.933Z,97641.47
2022-11-21T13:28:36.406Z,97632.38
2022-11-21T13:31:30.528Z,97636.97
2022-11-21T13:33:59.249Z,97631.00
2022-11-21T13:36:38.887Z,97625.69
2022-11-21T13:39:31.632Z,97613.19
2022-11-21T13:42:35.876Z,97606.78
2022-11-21T13:45:40.408Z,97590.53
2022-11-21T13:48:23.219Z,97585.81
2022-11-21T13:51:04.967Z,97581.88
2022-11-21T13:53:58.119Z,97579.41
2022-11-21T13:56:36.965Z,97569.75
2022-11-21T13:59:28.389Z,97561.53
2022-11-21T14:02:38.042Z,97564.22
2022-11-21T14:05:34.028Z,97556.50
2022-11-21T14:08:15.322Z,97549.31
2022-11-21T14:10:43.367Z,97535.38
2022-11-21T14:13:22.720Z,97535.72
2022-11-21T14:15:55.597Z,97530.97
2022-11-21T14:18:30.936Z,97517.84
2022-11-21T14:21:02.340Z,97512.06
2022-11-21T14:23:33.300Z,97500.81
2022-11-21T14:26:04.843Z,97490.44
2022-11-21T14:28:35.912Z,97484.66
2022-11-21T14:31:06.756Z,97479.78
2022-11-21T14:33:36.534Z,97464.78
2022-11-21T14:36:09.944Z,97455.06
2022-11-21T14:38:44.065Z,97460.63
2022-11-21T14:41:31.486Z,97462.84
2022-11-21T14:44:15.451Z,97451.38
2022-11-21T14:46:44.723Z,97444.63
2022-11-21T14:49:21.671Z,97450.88
2022-11-21T14:51:53.884Z,97449.34
2022-11-21T14:54:24.830Z,97455.88
2022-11-21T14:56:59.048Z,97452.59
2022-11-21T14:59:31.751Z,97447.91
2022-11-21T15:02:05.231Z,97448.09
2022-11-21T15:04:35.588Z,97441.47
2022-11-21T15:07:05.790Z,97435.59
2022-11-21T15:12:28.834Z,97426.19
2022-11-21T15:15:01.419Z,97432.38
2022-11-21T15:17:30.045Z,97412.94
2022-11-21T15:22:59.404Z,97397.75
2022-11-21T15:25:29.271Z,97382.19
2022-11-21T15:28:10.280Z,97360.75
2022-11-21T15:30:38.727Z,97348.00
2022-11-21T15:33:09.368Z,97346.97
2022-11-21T15:35:47.396Z,97348.81
2022-11-21T15:38:25.510Z,97338.31
2022-11-21T15:41:01.546Z,97334.09
2022-11-21T15:43:37.914Z,97335.53
2022-11-21T15:46:12.737Z,97331.75
2022-11-21T15:48:40.702Z,97327.38
2022-11-21T15:51:10.719Z,97319.28
2022-11-21T15:53:40.439Z,97330.91
2022-11-21T15:56:11.357Z,97323.78
2022-11-21T15:57:13.008Z,97399.66
2022-11-21T15:58:39.493Z,97313.06
2022-11-21T16:01:08.235Z,97318.88
2022-11-21T16:03:36.323Z,97326.25
2022-11-21T16:06:04.424Z,97325.56
2022-11-21T16:08:32.673Z,97312.72
2022-11-21T16:11:02.332Z,97313.47
2022-11-21T16:13:30.513Z,97315.78
2022-11-21T16:16:00.853Z,97310.09
2022-11-21T16:18:30.588Z,97313.63
2022-11-21T16:21:09.234Z,97298.25
2022-11-21T16:23:37.495Z,97298.06
2022-11-21T16:26:07.445Z,97293.84
2022-11-21T16:28:35.683Z,97292.47
2022-11-21T16:31:04.231Z,97291.88
2022-11-21T16:33:33.748Z,97279.25
2022-11-21T16:36:02.217Z,97274.63
2022-11-21T16:38:31.550Z,97258.16
2022-11-21T16:41:01.037Z,97248.53
2022-11-21T16:43:31.378Z,97250.00
2022-11-21T16:46:08.730Z,97226.16
2022-11-21T16:48:37.247Z,97245.72
2022-11-21T16:51:11.190Z,97224.94
2022-11-21T16:53:39.573Z,97212.22
2022-11-21T16:56:08.675Z,97213.53
2022-11-21T16:58:39.618Z,97211.63
2022-11-21T17:01:12.408Z,97203.13
2022-11-21T17:03:40.838Z,97198.41
2022-11-21T17:06:09.821Z,97212.69
2022-11-21T17:08:38.466Z,97196.03
2022-11-21T17:11:13.814Z,97186.41
2022-11-21T17:13:43.729Z,97198.56
2022-11-21T17:16:13.099Z,97181.47
2022-11-21T17:18:41.817Z,97183.53
2022-11-21T17:21:12.033Z,97182.41
2022-11-21T17:23:42.383Z,97189.22
2022-11-21T17:26:11.844Z,97185.69
2022-11-21T17:28:45.334Z,97175.97
2022-11-21T17:31:16.822Z,97187.91
2022-11-21T17:33:50.163Z,97187.94
2022-11-21T17:36:20.008Z,97187.69
2022-11-21T17:38:48.309Z,97190.25
2022-11-21T17:41:17.907Z,97180.72
2022-11-21T17:43:47.421Z,97173.28
2022-11-21T17:46:18.615Z,97161.19
2022-11-21T17:48:54.557Z,97164.72
2022-11-21T17:51:25.416Z,97154.34
2022-11-21T17:53:54.243Z,97153.00
2022-11-21T17:56:23.848Z,97149.66
2022-11-21T17:58:52.694Z,97142.81
2022-11-21T18:01:22.380Z,97150.88
2022-11-21T18:03:55.678Z,97147.97
2022-11-21T18:06:24.181Z,97133.25
2022-11-21T18:08:52.061Z,97125.59
2022-11-21T18:11:22.047Z,97116.69
2022-11-21T18:13:50.564Z,97116.81
2022-11-21T18:16:23.599Z,97135.59
2022-11-21T18:18:52.367Z,97119.81
2022-11-21T18:21:26.246Z,97123.84
2022-11-21T18:23:55.490Z,97126.31
2022-11-21T18:26:28.953Z,97130.59
2022-11-21T18:29:20.648Z,97114.75
2022-11-21T18:32:17.428Z,97116.31
2022-11-21T18:34:48.001Z,97116.97
2022-11-21T18:37:15.880Z,97096.16
2022-11-21T18:39:43.785Z,97082.13
2022-11-21T18:42:11.633Z,97075.84
2022-11-21T18:44:43.096Z,97055.69
2022-11-21T18:47:20.008Z,97069.03
2022-11-21T18:50:05.452Z,97084.75
2022-11-21T18:52:45.079Z,97115.97
2022-11-21T18:58:16.171Z,97122.53
2022-11-21T19:00:44.141Z,97126.94
2022-11-21T19:03:12.816Z,97112.09
2022-11-21T19:05:43.334Z,97137.31
2022-11-21T19:08:11.198Z,97113.31
2022-11-21T19:10:52.272Z,97139.97
2022-11-21T19:13:24.013Z,97129.44
2022-11-21T19:16:12.793Z,97127.44
2022-11-21T19:18:48.506Z,97120.72
2022-11-21T19:21:38.996Z,97092.41
2022-11-21T19:24:19.747Z,97094.78
2022-11-21T19:26:50.367Z,97099.81
2022-11-21T19:29:19.610Z,97103.88
2022-11-21T19:31:47.851Z,97104.88
2022-11-21T19:34:16.312Z,97096.44
2022-11-21T19:39:33.727Z,97093.88
2022-11-21T19:42:01.719Z,97103.53
2022-11-21T19:45:07.706Z,97104.47
2022-11-21T19:47:22.505Z,97095.19
2022-11-21T19:50:02.757Z,97092.13
2022-11-21T19:55:38.158Z,97087.28
2022-11-21T19:58:06.192Z,97078.72
2022-11-21T20:00:54.796Z,97084.00
2022-11-21T20:03:28.330Z,97087.47
2022-11-21T20:06:23.939Z,97074.38
2022-11-21T20:09:05.600Z,97079.13
2022-11-21T20:11:40.323Z,97059.50
2022-11-21T20:14:08.773Z,97041.88
2022-11-21T20:16:42.812Z,97046.84
2022-11-21T20:19:12.956Z,97057.69
2022-11-21T20:21:45.252Z,97035.88
2022-11-21T20:24:14.905Z,97020.47
2022-11-21T20:26:43.762Z,96997.19
2022-11-21T20:29:40.575Z,96990.84
2022-11-21T20:32:30.067Z,96981.28
2022-11-21T20:35:10.582Z,96984.94
2022-11-21T20:37:43.707Z,96976.75
2022-11-21T20:43:05.218Z,96965.88
2022-11-21T20:48:48.466Z,96932.19
2022-11-21T20:54:22.654Z,96922.59
2022-11-21T20:57:18.436Z,96930.34
2022-11-21T20:59:46.394Z,96939.56
2022-11-21T21:02:25.408Z,96937.22
2022-11-21T21:05:06.435Z,96922.47
2022-11-21T21:07:44.109Z,96918.59
2022-11-21T21:10:17.734Z,96918.78
2022-11-21T21:12:48.731Z,96910.91
2022-11-21T21:15:34.965Z,96905.88
2022-11-21T21:18:52.121Z,96908.91
2022-11-21T21:21:28.620Z,96901.16
2022-11-21T21:24:02.841Z,96889.78
2022-11-21T21:26:38.623Z,96897.16
2022-11-21T21:29:11.970Z,96901.19
2022-11-21T21:31:43.822Z,96893.16
2022-11-21T21:34:14.873Z,96897.31
2022-11-21T21:36:42.828Z,96883.44
2022-11-21T21:39:10.794Z,96887.44
2022-11-21T21:41:40.040Z,96885.78
2022-11-21T21:44:08.195Z,96877.88
2022-11-21T21:46:37.416Z,96876.22
2022-11-21T21:49:05.350Z,96872.88
2022-11-21T21:51:36.729Z,96875.91
2022-11-21T21:54:05.583Z,96872.38
2022-11-21T21:56:34.663Z,96882.41
2022-11-21T21:59:02.801Z,96891.81
2022-11-21T22:01:32.232Z,96885.59
2022-11-21T22:04:03.699Z,96871.19
2022-11-21T22:06:34.459Z,96858.28
2022-11-21T22:09:02.883Z,96832.97
2022-11-21T22:11:32.381Z,96820.75
2022-11-21T22:14:02.331Z,96819.59
2022-11-21T22:16:30.759Z,96813.75
2022-11-21T22:18:59.014Z,96809.53
2022-11-21T22:21:30.069Z,96804.69
2022-11-21T22:26:46.978Z,96809.22
2022-11-21T22:29:14.885Z,96794.47
2022-11-21T22:31:42.949Z,96780.22
2022-11-21T22:34:12.879Z,96790.91
2022-11-21T22:36:42.936Z,96770.47
2022-11-21T22:39:10.890Z,96755.41
2022-11-21T22:41:38.821Z,96751.06
2022-11-21T22:44:06.818Z,96728.28
2022-11-21T22:46:34.829Z,96678.00
2022-11-21T22:49:03.595Z,96680.41
2022-11-21T22:51:31.528Z,96661.16
2022-11-21T22:54:00.853Z,96644.47
2022-11-21T22:56:28.973Z,96635.59
2022-11-21T22:58:57.164Z,96570.59
2022-11-21T23:01:26.977Z,96576.16
2022-11-21T23:03:56.950Z,96575.97
2022-11-21T23:06:26.547Z,96593.38
2022-11-21T23:08:55.912Z,96587.03
2022-11-21T23:11:27.775Z,96587.41
2022-11-21T23:13:57.184Z,96606.59
2022-11-21T23:16:25.798Z,96632.94
2022-11-21T23:18:54.337Z,96657.38
2022-11-21T23:21:22.526Z,96651.19
2022-11-21T23:23:50.607Z,96655.69
2022-11-21T23:26:18.872Z,96643.44
2022-11-21T23:28:48.244Z,96646.00
2022-11-21T23:31:16.437Z,96631.25
2022-11-21T23:33:44.424Z,96635.94
2022-11-21T23:36:12.475Z,96634.59
2022-11-21T23:38:40.496Z,96630.56
2022-11-21T23:41:08.617Z,96629.56
2022-11-21T23:43:36.629Z,96622.41
2022-11-21T23:46:06.174Z,96618.53
2022-11-21T23:48:34.100Z,96611.34
2022-11-21T23:51:02.141Z,96615.00
2022-11-21T23:53:30.182Z,96606.84
2022-11-21T23:55:58.159Z,96612.84
2022-11-21T23:58:26.098Z,96608.81
